Terminal Aerodrome Forecast
Issued by NWS

Home | Current Version | Previous Version | Text Only | Print | Product List | Glossary Off
Versions: 1 2 3 4 5 6 7 8 9 10 11 12 13 14

066
FTUS43 KMPX 051732
TAFRWF
TAF
KRWF 051732Z 0518/0618 18012KT P6SM SCT025 BKN050
      TEMPO 0520/0524 5SM -SN OVC025
     FM060000 27007KT P6SM BKN020
     FM060400 27006KT P6SM SCT020
     FM061200 21008KT P6SM SCT250=

USA.gov is the U.S. government's official web portal to all federal, state and local government web resources and services.